Terminal Aerodrome Forecast
Issued by NWS

Home | Current Version | Previous Version | Text Only | Print | Product List | Glossary On
Versions: 1 2 3 4 5 6 7 8 9 10 11 12 13 14 15 16 17 18 19 20 21 22 23
000
FTUS43 KGRR 031313 AAB
TAFJXN
TAF AMD
KJXN 031313Z 0313/0412 21005KT 6SM HZ SCT120
     FM031400 21005KT 5SM SHRA BR VCTS OVC040CB
     FM031500 24006KT P6SM VCTS BKN040CB
     FM040000 13006KT P6SM VCSH BKN050
     FM040600 08003KT 2SM BR BKN009=

USA.gov is the U.S. government's official web portal to all federal, state and local government web resources and services.